createdAt,value
2023-04-07T00:00:24.710Z,13.65
2023-04-07T00:01:24.725Z,13.61
2023-04-07T00:02:24.804Z,13.60
2023-04-07T00:03:24.848Z,13.65
2023-04-07T00:04:24.891Z,13.62
2023-04-07T00:05:24.684Z,13.61
2023-04-07T00:06:24.695Z,13.64
2023-04-07T00:07:24.685Z,13.58
2023-04-07T00:08:24.657Z,13.60
2023-04-07T00:09:24.682Z,13.58
2023-04-07T00:10:24.716Z,13.61
2023-04-07T00:11:24.659Z,13.61
2023-04-07T00:12:24.661Z,13.60
2023-04-07T00:13:24.661Z,13.61
2023-04-07T00:14:24.634Z,13.57
2023-04-07T00:15:24.664Z,13.64
2023-04-07T00:16:24.649Z,13.60
2023-04-07T00:17:24.603Z,13.60
2023-04-07T00:18:24.599Z,13.59
2023-04-07T00:19:24.572Z,13.59
2023-04-07T00:20:24.583Z,13.60
2023-04-07T00:21:24.577Z,13.58
2023-04-07T00:22:24.622Z,13.60
2023-04-07T00:23:24.552Z,13.62
2023-04-07T00:24:33.907Z,13.58
2023-04-07T00:25:25.517Z,13.63
2023-04-07T00:26:24.514Z,13.60
2023-04-07T00:27:24.515Z,13.64
2023-04-07T00:28:24.508Z,13.58
2023-04-07T00:29:24.509Z,13.52
2023-04-07T00:30:24.498Z,13.58
2023-04-07T00:31:24.508Z,13.61
2023-04-07T00:32:24.491Z,13.60
2023-04-07T00:33:24.444Z,13.57
2023-04-07T00:34:24.458Z,13.61
2023-04-07T00:35:24.454Z,13.58
2023-04-07T00:36:24.446Z,13.65
2023-04-07T00:37:24.441Z,13.62
2023-04-07T00:38:24.407Z,13.58
2023-04-07T00:39:24.426Z,13.55
2023-04-07T00:40:24.379Z,13.60
2023-04-07T00:41:24.444Z,13.56
2023-04-07T00:42:24.394Z,13.57
2023-04-07T00:43:24.379Z,13.57
2023-04-07T00:44:24.427Z,13.60
2023-04-07T00:45:24.381Z,13.61
2023-04-07T00:46:24.452Z,13.65
2023-04-07T00:47:24.445Z,13.58
2023-04-07T00:48:24.420Z,13.58
2023-04-07T00:49:24.433Z,13.60
2023-04-07T00:50:24.431Z,13.62
2023-04-07T00:51:24.434Z,13.61
2023-04-07T00:52:24.447Z,13.61
2023-04-07T00:53:24.460Z,13.58
2023-04-07T00:54:24.460Z,13.65
2023-04-07T00:55:24.514Z,13.62
2023-04-07T00:56:24.525Z,13.62
2023-04-07T00:57:24.531Z,13.56
2023-04-07T00:58:24.573Z,13.62
2023-04-07T00:59:24.600Z,13.56
2023-04-07T01:00:24.607Z,13.61
2023-04-07T01:01:24.697Z,13.61
2023-04-07T01:02:24.810Z,13.61
2023-04-07T01:03:25.038Z,13.62
2023-04-07T01:04:24.732Z,13.68
2023-04-07T01:05:24.748Z,13.63
2023-04-07T01:06:24.757Z,13.58
2023-04-07T01:07:24.756Z,13.68
2023-04-07T01:08:24.782Z,13.71
2023-04-07T01:09:24.752Z,13.66
2023-04-07T01:10:24.781Z,13.62
2023-04-07T01:11:24.818Z,13.65
2023-04-07T01:12:24.781Z,13.65
2023-04-07T01:13:24.794Z,13.65
2023-04-07T01:14:24.774Z,13.66
2023-04-07T01:15:24.818Z,13.62
2023-04-07T01:16:24.806Z,13.63
2023-04-07T01:17:24.847Z,13.71
2023-04-07T01:18:24.827Z,13.68
2023-04-07T01:19:24.826Z,13.65
2023-04-07T01:20:24.844Z,13.68
2023-04-07T01:21:24.863Z,13.75
2023-04-07T01:22:24.848Z,13.68
2023-04-07T01:23:24.945Z,13.69
2023-04-07T01:24:24.873Z,13.75
2023-04-07T01:25:24.882Z,13.72
2023-04-07T01:26:24.910Z,13.69
2023-04-07T01:27:24.919Z,13.69
2023-04-07T01:28:24.917Z,13.72
2023-04-07T01:29:24.942Z,13.73
2023-04-07T01:30:24.950Z,13.69
2023-04-07T01:31:24.965Z,13.73
2023-04-07T01:32:24.974Z,13.68
2023-04-07T01:33:24.978Z,13.72
2023-04-07T01:34:24.982Z,13.72
2023-04-07T01:35:24.979Z,13.76
2023-04-07T01:36:24.999Z,13.78
2023-04-07T01:37:25.013Z,13.73
2023-04-07T01:38:25.004Z,13.73
2023-04-07T01:39:25.037Z,13.75
2023-04-07T01:40:25.041Z,13.72
2023-04-07T01:41:25.068Z,13.73
2023-04-07T01:42:25.049Z,13.76
2023-04-07T01:43:25.082Z,13.72
2023-04-07T01:44:25.082Z,13.78
2023-04-07T01:45:25.097Z,13.75
2023-04-07T01:46:25.149Z,13.75
2023-04-07T01:47:25.271Z,13.76
2023-04-07T01:48:25.155Z,13.75
2023-04-07T01:49:25.139Z,13.83
2023-04-07T01:50:25.155Z,13.73
2023-04-07T01:51:25.189Z,13.75
2023-04-07T01:52:25.182Z,13.82
2023-04-07T01:53:25.244Z,13.75
2023-04-07T01:54:25.215Z,13.78
2023-04-07T01:55:25.228Z,13.78
2023-04-07T01:56:25.249Z,13.79
2023-04-07T01:57:25.238Z,13.79
2023-04-07T01:58:25.248Z,13.79
2023-04-07T01:59:25.277Z,13.78
2023-04-07T02:00:25.294Z,13.82
2023-04-07T02:01:25.333Z,13.78
2023-04-07T02:02:25.436Z,13.81
2023-04-07T02:03:25.431Z,13.85
2023-04-07T02:04:25.334Z,13.85
2023-04-07T02:05:25.326Z,13.81
2023-04-07T02:06:25.346Z,13.83
2023-04-07T02:07:25.342Z,13.86
2023-04-07T02:08:25.365Z,13.81
2023-04-07T02:09:25.363Z,13.85
2023-04-07T02:10:25.401Z,13.86
2023-04-07T02:11:25.399Z,13.86
2023-04-07T02:12:25.400Z,13.87
2023-04-07T02:13:25.421Z,13.87
2023-04-07T02:14:25.432Z,13.85
2023-04-07T02:15:25.469Z,13.86
2023-04-07T02:16:25.477Z,13.87
2023-04-07T02:17:25.509Z,13.92
2023-04-07T02:18:25.513Z,13.86
2023-04-07T02:19:25.514Z,13.93
2023-04-07T02:20:25.538Z,13.91
2023-04-07T02:21:25.542Z,13.92
2023-04-07T02:22:25.539Z,13.95
2023-04-07T02:23:25.564Z,13.96
2023-04-07T02:24:25.587Z,13.98
2023-04-07T02:25:25.641Z,13.93
2023-04-07T02:26:25.635Z,13.95
2023-04-07T02:27:25.643Z,13.96
2023-04-07T02:28:25.691Z,13.93
2023-04-07T02:29:25.690Z,13.98
2023-04-07T02:30:25.697Z,13.95
2023-04-07T02:31:25.720Z,13.96
2023-04-07T02:32:25.822Z,13.98
2023-04-07T02:33:25.775Z,13.99
2023-04-07T02:34:25.785Z,13.99
2023-04-07T02:35:25.800Z,13.98
2023-04-07T02:36:25.855Z,13.99
2023-04-07T02:37:25.875Z,13.98
2023-04-07T02:38:25.886Z,14.06
2023-04-07T02:39:25.886Z,14.06
2023-04-07T02:40:25.894Z,13.99
2023-04-07T02:41:25.880Z,13.99
2023-04-07T02:42:25.933Z,14.02
2023-04-07T02:43:25.960Z,14.05
2023-04-07T02:44:26.044Z,14.05
2023-04-07T02:45:25.986Z,14.11
2023-04-07T02:46:26.109Z,14.06
2023-04-07T02:47:26.032Z,14.03
2023-04-07T02:48:26.048Z,14.07
2023-04-07T02:49:26.051Z,14.09
2023-04-07T02:50:26.124Z,14.10
2023-04-07T02:51:26.106Z,14.13
2023-04-07T02:52:26.125Z,14.14
2023-04-07T02:53:26.132Z,14.10
2023-04-07T02:54:26.201Z,14.13
2023-04-07T02:55:26.221Z,14.10
2023-04-07T02:56:26.236Z,14.13
2023-04-07T02:57:26.236Z,14.19
2023-04-07T02:58:26.243Z,14.16
2023-04-07T02:59:26.273Z,14.14
2023-04-07T03:00:26.300Z,14.14
2023-04-07T03:01:26.383Z,14.17
2023-04-07T03:02:26.367Z,14.18
2023-04-07T03:03:26.436Z,14.23
2023-04-07T03:04:26.466Z,14.22
2023-04-07T03:05:26.394Z,14.25
2023-04-07T03:06:26.387Z,14.19
2023-04-07T03:07:26.419Z,14.22
2023-04-07T03:08:26.446Z,14.20
2023-04-07T03:09:26.464Z,14.20
2023-04-07T03:10:26.446Z,14.26
2023-04-07T03:11:26.490Z,14.23
2023-04-07T03:12:26.507Z,14.26
2023-04-07T03:13:26.527Z,14.27
2023-04-07T03:14:26.576Z,14.26
2023-04-07T03:15:26.580Z,14.22
2023-04-07T03:16:26.617Z,14.30
2023-04-07T03:17:26.670Z,14.27
2023-04-07T03:18:26.642Z,14.29
2023-04-07T03:19:26.673Z,14.27
2023-04-07T03:20:26.656Z,14.30
2023-04-07T03:21:26.676Z,14.27
2023-04-07T03:22:26.715Z,14.29
2023-04-07T03:23:26.716Z,14.29
2023-04-07T03:24:26.792Z,14.30
2023-04-07T03:25:26.819Z,14.32
2023-04-07T03:26:26.852Z,14.29
2023-04-07T03:27:26.850Z,14.34
2023-04-07T03:28:26.862Z,14.36
2023-04-07T03:29:26.886Z,14.30
2023-04-07T03:30:26.918Z,14.27
2023-04-07T03:31:26.956Z,14.26
2023-04-07T03:32:27.032Z,14.32
2023-04-07T03:33:26.969Z,14.36
2023-04-07T03:34:26.985Z,14.32
2023-04-07T03:35:26.992Z,14.34
2023-04-07T03:36:27.391Z,14.34
2023-04-07T03:37:27.425Z,14.37
2023-04-07T03:38:27.124Z,14.40
2023-04-07T03:39:27.164Z,14.34
2023-04-07T03:40:27.156Z,14.40
2023-04-07T03:41:27.196Z,14.40
2023-04-07T03:42:27.205Z,14.39
2023-04-07T03:43:27.245Z,14.37
2023-04-07T03:44:27.262Z,14.36
2023-04-07T03:45:27.278Z,14.37
2023-04-07T03:46:27.437Z,14.36
2023-04-07T03:47:27.322Z,14.37
2023-04-07T03:48:28.750Z,14.36
2023-04-07T03:49:27.349Z,14.34
2023-04-07T03:50:27.391Z,14.36
2023-04-07T03:51:27.398Z,14.34
2023-04-07T03:52:27.393Z,14.40
2023-04-07T03:53:27.450Z,14.33
2023-04-07T03:54:27.449Z,14.39
2023-04-07T03:55:27.495Z,14.37
2023-04-07T03:56:28.853Z,14.40
2023-04-07T03:57:27.522Z,14.39
2023-04-07T03:58:27.552Z,14.41
2023-04-07T03:59:27.562Z,14.40
2023-04-07T04:00:27.608Z,14.41
2023-04-07T04:01:27.649Z,14.39
2023-04-07T04:02:27.707Z,14.43
2023-04-07T04:03:27.790Z,14.40
2023-04-07T04:04:27.759Z,14.43
2023-04-07T04:05:27.774Z,14.46
2023-04-07T04:06:27.849Z,14.43
2023-04-07T04:07:27.839Z,14.40
2023-04-07T04:08:27.850Z,14.40
2023-04-07T04:09:27.908Z,14.46
2023-04-07T04:10:27.923Z,14.40
2023-04-07T04:11:27.920Z,14.41
2023-04-07T04:12:27.977Z,14.41
2023-04-07T04:13:28.002Z,14.44
2023-04-07T04:14:28.004Z,14.43
2023-04-07T04:15:28.034Z,14.44
2023-04-07T04:16:28.208Z,14.40
2023-04-07T04:17:28.101Z,14.44
2023-04-07T04:18:28.076Z,14.43
2023-04-07T04:19:28.142Z,14.47
2023-04-07T04:20:28.115Z,14.44
2023-04-07T04:21:28.136Z,14.43
2023-04-07T04:22:28.159Z,14.47
2023-04-07T04:23:28.175Z,14.46
2023-04-07T04:24:28.226Z,14.39
2023-04-07T04:25:28.234Z,14.46
2023-04-07T04:26:28.262Z,14.46
2023-04-07T04:27:28.259Z,14.46
2023-04-07T04:28:28.310Z,14.46
2023-04-07T04:29:28.303Z,14.47
2023-04-07T04:30:28.321Z,14.44
2023-04-07T04:31:28.381Z,14.50
2023-04-07T04:32:29.285Z,14.43
2023-04-07T04:33:28.378Z,14.47
2023-04-07T04:34:28.429Z,14.48
2023-04-07T04:35:28.460Z,14.44
2023-04-07T04:36:28.484Z,14.50
2023-04-07T04:37:28.471Z,14.47
2023-04-07T04:38:28.484Z,14.53
2023-04-07T04:39:28.474Z,14.43
2023-04-07T04:40:28.511Z,14.47
2023-04-07T04:41:28.520Z,14.47
2023-04-07T04:42:28.560Z,14.49
2023-04-07T04:43:28.593Z,14.50
2023-04-07T04:44:28.545Z,14.52
2023-04-07T04:45:28.558Z,14.43
2023-04-07T04:46:28.642Z,14.45
2023-04-07T04:47:28.576Z,14.49
2023-04-07T04:48:28.609Z,14.46
2023-04-07T04:49:28.639Z,14.47
2023-04-07T04:50:28.631Z,14.47
2023-04-07T04:51:28.626Z,14.48
2023-04-07T04:52:28.664Z,14.48
2023-04-07T04:53:28.713Z,14.51
2023-04-07T04:54:28.688Z,14.45
2023-04-07T04:55:28.786Z,14.42
2023-04-07T04:56:28.764Z,14.43
2023-04-07T04:57:28.788Z,14.49
2023-04-07T04:58:28.827Z,14.45
2023-04-07T04:59:28.850Z,14.42
2023-04-07T05:00:28.844Z,14.44
2023-04-07T05:01:35.886Z,14.45
2023-04-07T05:02:28.982Z,14.48
2023-04-07T05:03:29.081Z,14.47
2023-04-07T05:04:29.096Z,14.48
2023-04-07T05:05:28.835Z,14.41
2023-04-07T05:06:28.837Z,14.42
2023-04-07T05:07:28.819Z,14.48
2023-04-07T05:08:28.818Z,14.47
2023-04-07T05:09:28.812Z,14.42
2023-04-07T05:10:28.816Z,14.42
2023-04-07T05:11:28.767Z,14.48
2023-04-07T05:12:28.778Z,14.48
2023-04-07T05:13:28.767Z,14.41
2023-04-07T05:14:28.758Z,14.40
2023-04-07T05:15:28.738Z,14.48
2023-04-07T05:16:28.727Z,14.43
2023-04-07T05:17:28.736Z,14.40
2023-04-07T05:18:28.716Z,14.40
2023-04-07T05:19:28.678Z,14.41
2023-04-07T05:20:28.684Z,14.43
2023-04-07T05:21:28.841Z,14.44
2023-04-07T05:22:28.647Z,14.41
2023-04-07T05:23:28.656Z,14.44
2023-04-07T05:24:28.668Z,14.46
2023-04-07T05:25:28.651Z,14.47
2023-04-07T05:26:28.628Z,14.41
2023-04-07T05:27:28.635Z,14.44
2023-04-07T05:28:28.639Z,14.43
2023-04-07T05:29:28.584Z,14.41
2023-04-07T05:30:28.617Z,14.47
2023-04-07T05:31:28.636Z,14.44
2023-04-07T05:32:28.665Z,14.43
2023-04-07T05:33:28.579Z,14.41
2023-04-07T05:34:28.536Z,14.43
2023-04-07T05:35:28.516Z,14.40
2023-04-07T05:36:28.568Z,14.43
2023-04-07T05:37:28.540Z,14.41
2023-04-07T05:38:28.522Z,14.45
2023-04-07T05:39:28.510Z,14.41
2023-04-07T05:40:28.475Z,14.45
2023-04-07T05:41:28.543Z,14.43
2023-04-07T05:42:28.454Z,14.41
2023-04-07T05:43:28.480Z,14.45
2023-04-07T05:44:28.486Z,14.41
2023-04-07T05:45:35.578Z,14.43
2023-04-07T05:46:28.510Z,14.43
2023-04-07T05:47:28.573Z,14.43
2023-04-07T05:48:28.525Z,14.42
2023-04-07T05:49:28.490Z,14.42
2023-04-07T05:50:28.463Z,14.43
2023-04-07T05:51:28.483Z,14.43
2023-04-07T05:52:28.478Z,14.45
2023-04-07T05:53:28.439Z,14.45
2023-04-07T05:54:28.469Z,14.45
2023-04-07T05:55:28.443Z,14.46
2023-04-07T05:56:28.482Z,14.50
2023-04-07T05:57:28.407Z,14.43
2023-04-07T05:58:28.388Z,14.47
2023-04-07T05:59:28.393Z,14.46
2023-04-07T06:00:28.369Z,14.47
2023-04-07T06:01:28.483Z,14.39
2023-04-07T06:02:28.629Z,14.50
2023-04-07T06:03:28.486Z,14.49
2023-04-07T06:04:28.428Z,14.48
2023-04-07T06:05:28.381Z,14.50
2023-04-07T06:06:28.347Z,14.52
2023-04-07T06:07:28.343Z,14.49
2023-04-07T06:08:28.333Z,14.49
2023-04-07T06:09:28.316Z,14.47
2023-04-07T06:10:28.313Z,14.50
2023-04-07T06:11:28.323Z,14.49
2023-04-07T06:12:28.313Z,14.45
2023-04-07T06:13:28.329Z,14.52
2023-04-07T06:14:28.307Z,14.49
2023-04-07T06:15:28.303Z,14.48
2023-04-07T06:16:28.370Z,14.54
2023-04-07T06:17:28.289Z,14.48
2023-04-07T06:18:28.318Z,14.48
2023-04-07T06:19:28.287Z,14.43
2023-04-07T06:20:28.294Z,14.47
2023-04-07T06:21:28.338Z,14.47
2023-04-07T06:22:28.405Z,14.47
2023-04-07T06:23:28.416Z,14.51
2023-04-07T06:24:28.461Z,14.47
2023-04-07T06:25:28.577Z,14.49
2023-04-07T06:26:28.562Z,14.45
2023-04-07T06:27:28.590Z,14.47
2023-04-07T06:28:28.623Z,14.48
2023-04-07T06:29:28.669Z,14.52
2023-04-07T06:30:28.747Z,14.51
2023-04-07T06:31:28.763Z,14.49
2023-04-07T06:32:28.844Z,14.47
2023-04-07T06:33:28.869Z,14.54
2023-04-07T06:34:28.907Z,14.49
2023-04-07T06:35:28.970Z,14.51
2023-04-07T06:36:28.980Z,14.48
2023-04-07T06:37:29.067Z,14.50
2023-04-07T06:38:29.076Z,14.52
2023-04-07T06:39:29.077Z,14.51
2023-04-07T06:40:29.121Z,14.53
2023-04-07T06:41:29.164Z,14.51
2023-04-07T06:42:29.201Z,14.51
2023-04-07T06:43:29.258Z,14.50
2023-04-07T06:44:29.290Z,14.53
2023-04-07T06:45:29.294Z,14.51
2023-04-07T06:46:29.409Z,14.55
2023-04-07T06:47:29.391Z,14.54
2023-04-07T06:48:29.395Z,14.53
2023-04-07T06:49:29.464Z,14.51
2023-04-07T06:50:29.507Z,14.50
2023-04-07T06:51:29.502Z,14.57
2023-04-07T06:52:29.591Z,14.58
2023-04-07T06:53:29.573Z,14.57
2023-04-07T06:54:29.644Z,14.63
2023-04-07T06:55:29.706Z,14.56
2023-04-07T06:56:29.677Z,14.57
2023-04-07T06:57:29.706Z,14.61
2023-04-07T06:58:29.778Z,14.57
2023-04-07T06:59:29.798Z,14.59
2023-04-07T07:00:29.847Z,14.59
2023-04-07T07:01:30.000Z,14.59
2023-04-07T07:02:30.109Z,14.61
2023-04-07T07:03:30.114Z,14.63
2023-04-07T07:04:30.105Z,14.66
2023-04-07T07:05:30.026Z,14.62
2023-04-07T07:06:30.048Z,14.64
2023-04-07T07:07:30.134Z,14.64
2023-04-07T07:08:30.101Z,14.66
2023-04-07T07:09:30.152Z,14.66
2023-04-07T07:10:30.180Z,14.62
2023-04-07T07:11:30.232Z,14.66
2023-04-07T07:12:30.243Z,14.69
2023-04-07T07:13:30.281Z,14.66
2023-04-07T07:14:30.301Z,14.68
2023-04-07T07:15:30.309Z,14.67
2023-04-07T07:16:30.362Z,14.68
2023-04-07T07:17:30.424Z,14.70
2023-04-07T07:18:31.799Z,14.68
2023-04-07T07:19:30.450Z,14.68
2023-04-07T07:20:30.493Z,14.75
2023-04-07T07:21:30.544Z,14.70
2023-04-07T07:22:30.571Z,14.68
2023-04-07T07:23:30.565Z,14.69
2023-04-07T07:24:30.643Z,14.72
2023-04-07T07:25:30.669Z,14.66
2023-04-07T07:26:30.738Z,14.72
2023-04-07T07:27:30.739Z,14.73
2023-04-07T07:28:30.749Z,14.72
2023-04-07T07:29:30.798Z,14.73
2023-04-07T07:30:30.806Z,14.73
2023-04-07T07:31:30.871Z,14.72
2023-04-07T07:32:30.862Z,14.73
2023-04-07T07:33:30.898Z,14.74
2023-04-07T07:34:31.003Z,14.72
2023-04-07T07:35:30.962Z,14.72
2023-04-07T07:36:30.969Z,14.72
2023-04-07T07:37:31.076Z,14.69
2023-04-07T07:38:31.069Z,14.68
2023-04-07T07:39:31.060Z,14.71
2023-04-07T07:40:31.065Z,14.72
2023-04-07T07:41:31.164Z,14.71
2023-04-07T07:42:31.142Z,14.74
2023-04-07T07:43:31.164Z,14.69
2023-04-07T07:44:32.502Z,14.72
2023-04-07T07:45:31.201Z,14.69
2023-04-07T07:46:31.280Z,14.68
2023-04-07T07:47:31.296Z,14.70
2023-04-07T07:48:31.363Z,14.70
2023-04-07T07:49:32.032Z,14.71
2023-04-07T07:50:31.342Z,14.70
2023-04-07T07:51:31.344Z,14.67
2023-04-07T07:52:31.353Z,14.70
2023-04-07T07:53:31.392Z,14.65
2023-04-07T07:54:31.444Z,14.63
2023-04-07T07:55:31.440Z,14.67
2023-04-07T07:56:31.459Z,14.70
2023-04-07T07:57:31.486Z,14.70
2023-04-07T07:58:31.465Z,14.69
2023-04-07T07:59:31.494Z,14.62
2023-04-07T08:00:31.537Z,14.68
2023-04-07T08:01:31.547Z,14.62
2023-04-07T08:02:31.630Z,14.58
2023-04-07T08:03:31.680Z,14.65
2023-04-07T08:04:31.604Z,14.62
2023-04-07T08:05:31.523Z,14.62
2023-04-07T08:06:31.552Z,14.61
2023-04-07T08:07:31.528Z,14.66
2023-04-07T08:08:31.532Z,14.62
2023-04-07T08:09:31.544Z,14.62
2023-04-07T08:10:31.570Z,14.59
2023-04-07T08:11:31.547Z,14.62
2023-04-07T08:12:31.557Z,14.61
2023-04-07T08:13:31.604Z,14.68
2023-04-07T08:14:31.593Z,14.66
2023-04-07T08:15:31.639Z,14.71
2023-04-07T08:16:31.675Z,14.66
2023-04-07T08:17:31.665Z,14.72
2023-04-07T08:18:31.683Z,14.68
2023-04-07T08:19:31.683Z,14.65
2023-04-07T08:20:31.662Z,14.68
2023-04-07T08:21:31.727Z,14.68
2023-04-07T08:22:31.687Z,14.65
2023-04-07T08:23:31.689Z,14.66
2023-04-07T08:24:31.732Z,14.68
2023-04-07T08:25:31.750Z,14.68
2023-04-07T08:26:31.776Z,14.74
2023-04-07T08:27:31.770Z,14.68
2023-04-07T08:28:31.764Z,14.71
2023-04-07T08:29:32.357Z,14.71
2023-04-07T08:30:31.794Z,14.70
2023-04-07T08:31:31.932Z,14.71
2023-04-07T08:32:31.835Z,14.68
2023-04-07T08:33:31.767Z,14.71
2023-04-07T08:34:31.817Z,14.74
2023-04-07T08:35:31.810Z,14.74
2023-04-07T08:36:31.829Z,14.75
2023-04-07T08:37:31.786Z,14.72
2023-04-07T08:38:31.780Z,14.74
2023-04-07T08:39:31.778Z,14.70
2023-04-07T08:40:31.856Z,14.74
2023-04-07T08:41:31.787Z,14.73
2023-04-07T08:42:31.798Z,14.69
2023-04-07T08:43:31.821Z,14.73
2023-04-07T08:44:31.838Z,14.76
2023-04-07T08:45:31.819Z,14.76
2023-04-07T08:46:31.939Z,14.73
2023-04-07T08:47:31.847Z,14.73
2023-04-07T08:48:31.838Z,14.73
2023-04-07T08:49:31.870Z,14.79
2023-04-07T08:50:31.862Z,14.73
2023-04-07T08:51:31.910Z,14.79
2023-04-07T08:52:31.866Z,14.73
2023-04-07T08:53:31.840Z,14.77
2023-04-07T08:54:31.923Z,14.76
2023-04-07T08:55:31.871Z,14.80
2023-04-07T08:56:31.902Z,14.76
2023-04-07T08:57:31.912Z,14.78
2023-04-07T08:58:31.927Z,14.75
2023-04-07T08:59:31.915Z,14.79
2023-04-07T09:00:31.931Z,14.76
2023-04-07T09:01:32.084Z,14.76
2023-04-07T09:02:32.165Z,14.75
2023-04-07T09:03:31.996Z,14.77
2023-04-07T09:04:32.001Z,14.75
2023-04-07T09:05:31.965Z,14.78
2023-04-07T09:06:31.996Z,14.75
2023-04-07T09:07:32.000Z,14.78
2023-04-07T09:08:31.992Z,14.77
2023-04-07T09:09:32.009Z,14.77
2023-04-07T09:10:32.002Z,14.78
2023-04-07T09:11:31.985Z,14.77
2023-04-07T09:12:32.026Z,14.83
2023-04-07T09:13:31.985Z,14.78
2023-04-07T09:14:31.978Z,14.76
2023-04-07T09:15:31.944Z,14.74
2023-04-07T09:16:32.006Z,14.81
2023-04-07T09:17:31.985Z,14.77
2023-04-07T09:18:32.000Z,14.77
2023-04-07T09:19:31.995Z,14.80
2023-04-07T09:20:32.007Z,14.81
2023-04-07T09:21:32.019Z,14.81
2023-04-07T09:22:32.025Z,14.81
2023-04-07T09:23:32.004Z,14.77
2023-04-07T09:24:31.991Z,14.79
2023-04-07T09:25:32.019Z,14.77
2023-04-07T09:26:32.004Z,14.80
2023-04-07T09:27:32.013Z,14.73
2023-04-07T09:28:32.034Z,14.76
2023-04-07T09:29:31.986Z,14.80
2023-04-07T09:30:32.029Z,14.76
2023-04-07T09:31:32.084Z,14.79
2023-04-07T09:32:32.025Z,14.78
2023-04-07T09:33:31.959Z,14.79
2023-04-07T09:34:31.988Z,14.72
2023-04-07T09:35:32.061Z,14.70
2023-04-07T09:36:32.028Z,14.75
2023-04-07T09:37:32.033Z,14.71
2023-04-07T09:38:32.056Z,14.71
2023-04-07T09:39:32.028Z,14.71
2023-04-07T09:40:32.100Z,14.71
2023-04-07T09:41:32.152Z,14.74
2023-04-07T09:42:32.137Z,14.71
2023-04-07T09:43:32.138Z,14.68
2023-04-07T09:44:32.184Z,14.66
2023-04-07T09:45:35.259Z,14.68
2023-04-07T09:46:32.211Z,14.71
2023-04-07T09:47:32.289Z,14.65
2023-04-07T09:48:32.114Z,14.67
2023-04-07T09:49:32.069Z,14.68
2023-04-07T09:50:32.052Z,14.64
2023-04-07T09:51:32.272Z,14.65
2023-04-07T09:52:31.994Z,14.67
2023-04-07T09:53:31.959Z,14.64
2023-04-07T09:54:31.909Z,14.65
2023-04-07T09:55:31.884Z,14.67
2023-04-07T09:56:31.877Z,14.65
2023-04-07T09:57:31.856Z,14.66
2023-04-07T09:58:31.827Z,14.66
2023-04-07T09:59:31.809Z,14.66
2023-04-07T10:00:31.805Z,14.63
2023-04-07T10:01:31.765Z,14.63
2023-04-07T10:02:31.828Z,14.61
2023-04-07T10:03:31.751Z,14.61
2023-04-07T10:04:31.721Z,14.65
2023-04-07T10:05:31.638Z,14.59
2023-04-07T10:06:31.607Z,14.61
2023-04-07T10:07:31.584Z,14.61
2023-04-07T10:08:31.560Z,14.54
2023-04-07T10:09:31.507Z,14.59
2023-04-07T10:10:31.493Z,14.59
2023-04-07T10:11:31.466Z,14.59
2023-04-07T10:12:31.439Z,14.57
2023-04-07T10:13:31.412Z,14.57
2023-04-07T10:14:31.416Z,14.60
2023-04-07T10:15:31.358Z,14.57
2023-04-07T10:16:31.395Z,14.56
2023-04-07T10:17:31.338Z,14.54
2023-04-07T10:18:31.276Z,14.54
2023-04-07T10:19:31.240Z,14.53
2023-04-07T10:20:31.206Z,14.57
2023-04-07T10:21:32.856Z,14.56
2023-04-07T10:22:31.137Z,14.54
2023-04-07T10:23:31.112Z,14.54
2023-04-07T10:24:31.122Z,14.50
2023-04-07T10:25:31.099Z,14.56
2023-04-07T10:26:31.097Z,14.54
2023-04-07T10:27:31.127Z,14.57
2023-04-07T10:28:31.141Z,14.55
2023-04-07T10:29:31.135Z,14.53
2023-04-07T10:30:31.344Z,14.52
2023-04-07T10:31:31.329Z,14.56
2023-04-07T10:32:31.199Z,14.52
2023-04-07T10:33:31.207Z,14.52
2023-04-07T10:34:31.218Z,14.50
2023-04-07T10:35:31.273Z,14.52
2023-04-07T10:36:31.277Z,14.52
2023-04-07T10:37:31.263Z,14.54
2023-04-07T10:38:31.477Z,14.50
2023-04-07T10:39:31.334Z,14.53
2023-04-07T10:40:31.335Z,14.50
2023-04-07T10:41:31.338Z,14.48
2023-04-07T10:42:31.345Z,14.49
2023-04-07T10:43:31.381Z,14.54
2023-04-07T10:44:31.401Z,14.55
2023-04-07T10:45:31.445Z,14.56
2023-04-07T10:46:31.475Z,14.52
2023-04-07T10:47:31.466Z,14.55
2023-04-07T10:48:31.457Z,14.47
2023-04-07T10:49:31.515Z,14.51
2023-04-07T10:50:31.460Z,14.55
2023-04-07T10:51:31.520Z,14.55
2023-04-07T10:52:31.515Z,14.51
2023-04-07T10:53:31.548Z,14.56
2023-04-07T10:54:31.516Z,14.56
2023-04-07T10:55:31.541Z,14.52
2023-04-07T10:56:31.548Z,14.50
2023-04-07T10:57:31.596Z,14.58
2023-04-07T10:58:31.609Z,14.56
2023-04-07T10:59:31.617Z,14.52
2023-04-07T11:00:31.613Z,14.55
2023-04-07T11:01:31.763Z,14.55
2023-04-07T11:02:31.862Z,14.54
2023-04-07T11:03:31.878Z,14.58
2023-04-07T11:04:31.798Z,14.53
2023-04-07T11:05:31.748Z,14.55
2023-04-07T11:06:31.748Z,14.58
2023-04-07T11:07:31.788Z,14.62
2023-04-07T11:08:31.810Z,14.61
2023-04-07T11:09:31.807Z,14.62
2023-04-07T11:10:31.837Z,14.59
2023-04-07T11:11:31.849Z,14.62
2023-04-07T11:12:31.850Z,14.59
2023-04-07T11:13:31.874Z,14.65
2023-04-07T11:14:31.875Z,14.63
2023-04-07T11:15:31.930Z,14.66
2023-04-07T11:16:32.025Z,14.66
2023-04-07T11:17:31.933Z,14.67
2023-04-07T11:18:31.951Z,14.63
2023-04-07T11:19:31.947Z,14.63
2023-04-07T11:20:31.966Z,14.67
2023-04-07T11:21:32.001Z,14.65
2023-04-07T11:22:32.025Z,14.65
2023-04-07T11:23:32.040Z,14.70
2023-04-07T11:24:32.008Z,14.69
2023-04-07T11:25:32.058Z,14.69
2023-04-07T11:26:32.079Z,14.67
2023-04-07T11:27:32.106Z,14.64
2023-04-07T11:28:32.139Z,14.70
2023-04-07T11:29:32.143Z,14.70
2023-04-07T11:30:32.158Z,14.70
2023-04-07T11:31:32.184Z,14.67
2023-04-07T11:32:32.164Z,14.70
2023-04-07T11:33:32.197Z,14.70
2023-04-07T11:34:32.169Z,14.66
2023-04-07T11:35:32.213Z,14.67
2023-04-07T11:36:32.204Z,14.65
2023-04-07T11:37:32.244Z,14.70
2023-04-07T11:38:32.176Z,14.69
2023-04-07T11:39:32.232Z,14.67
2023-04-07T11:40:32.210Z,14.63
2023-04-07T11:41:32.243Z,14.70
2023-04-07T11:42:32.218Z,14.67
2023-04-07T11:43:32.218Z,14.68
2023-04-07T11:44:32.218Z,14.68
2023-04-07T11:45:32.190Z,14.64
2023-04-07T11:46:32.212Z,14.68
2023-04-07T11:47:32.194Z,14.68
2023-04-07T11:48:32.181Z,14.71
2023-04-07T11:49:32.174Z,14.68
2023-04-07T11:50:32.229Z,14.68
2023-04-07T11:51:32.201Z,14.71
2023-04-07T11:52:32.278Z,14.72
2023-04-07T11:53:32.292Z,14.71
2023-04-07T11:54:32.291Z,14.69
2023-04-07T11:55:32.300Z,14.72
2023-04-07T11:56:32.308Z,14.69
2023-04-07T11:57:32.326Z,14.69
2023-04-07T11:58:32.325Z,14.68
2023-04-07T11:59:32.299Z,14.72
2023-04-07T12:00:32.295Z,14.75
2023-04-07T12:01:32.436Z,14.72
2023-04-07T12:02:32.490Z,14.74
2023-04-07T12:03:32.441Z,14.72
2023-04-07T12:04:32.387Z,14.71
2023-04-07T12:05:32.315Z,14.69
2023-04-07T12:06:32.327Z,14.69
2023-04-07T12:07:32.327Z,14.69
2023-04-07T12:08:32.308Z,14.68
2023-04-07T12:09:32.395Z,14.74
2023-04-07T12:10:32.363Z,14.69
2023-04-07T12:11:32.362Z,14.69
2023-04-07T12:12:32.419Z,14.66
2023-04-07T12:13:32.404Z,14.68
2023-04-07T12:14:32.425Z,14.69
2023-04-07T12:15:32.452Z,14.68
2023-04-07T12:16:32.458Z,14.68
2023-04-07T12:17:32.481Z,14.69
2023-04-07T12:18:32.461Z,14.65
2023-04-07T12:19:32.444Z,14.64
2023-04-07T12:20:32.458Z,14.68
2023-04-07T12:21:32.458Z,14.65
2023-04-07T12:22:32.454Z,14.66
2023-04-07T12:23:32.500Z,14.69
2023-04-07T12:24:32.632Z,14.66
2023-04-07T12:25:32.509Z,14.70
2023-04-07T12:26:32.575Z,14.66
2023-04-07T12:27:42.043Z,14.67
2023-04-07T12:28:33.456Z,14.65
2023-04-07T12:29:32.444Z,14.69
2023-04-07T12:30:32.400Z,14.67
2023-04-07T12:31:32.456Z,14.63
2023-04-07T12:32:32.432Z,14.66
2023-04-07T12:33:32.359Z,14.66
2023-04-07T12:34:32.358Z,14.62
2023-04-07T12:35:32.364Z,14.63
2023-04-07T12:36:32.284Z,14.69
2023-04-07T12:37:32.287Z,14.69
2023-04-07T12:38:32.228Z,14.63
2023-04-07T12:39:32.222Z,14.63
2023-04-07T12:40:32.224Z,14.67
2023-04-07T12:41:32.215Z,14.63
2023-04-07T12:42:32.216Z,14.70
2023-04-07T12:43:32.204Z,14.73
2023-04-07T12:44:32.238Z,14.70
2023-04-07T12:45:32.236Z,14.70
2023-04-07T12:46:32.250Z,14.70
2023-04-07T12:47:32.247Z,14.70
2023-04-07T12:48:32.208Z,14.65
2023-04-07T12:49:32.253Z,14.73
2023-04-07T12:50:32.276Z,14.71
2023-04-07T12:51:32.241Z,14.70
2023-04-07T12:52:32.254Z,14.74